sensor_id;sensor_type;location;lat;lon;timestamp;P1;durP1;ratioP1;P2;durP2;ratioP2
37339;SDS011;23223;51.006;7.610;2023-08-31T00:00:33;11.05;;;6.38;;
37339;SDS011;23223;51.006;7.610;2023-08-31T00:02:59;7.18;;;5.28;;
37339;SDS011;23223;51.006;7.610;2023-08-31T00:05:25;8.23;;;6.72;;
37339;SDS011;23223;51.006;7.610;2023-08-31T00:07:55;3.83;;;2.97;;
37339;SDS011;23223;51.006;7.610;2023-08-31T00:10:21;4.10;;;3.67;;
37339;SDS011;23223;51.006;7.610;2023-08-31T00:12:46;11.43;;;6.60;;
37339;SDS011;23223;51.006;7.610;2023-08-31T00:15:13;5.20;;;4.70;;
37339;SDS011;23223;51.006;7.610;2023-08-31T00:17:38;5.57;;;3.50;;
37339;SDS011;23223;51.006;7.610;2023-08-31T00:20:05;4.47;;;2.70;;
37339;SDS011;23223;51.006;7.610;2023-08-31T00:22:33;8.70;;;5.32;;
37339;SDS011;23223;51.006;7.610;2023-08-31T00:24:58;8.27;;;6.40;;
37339;SDS011;23223;51.006;7.610;2023-08-31T00:27:24;9.60;;;6.20;;
37339;SDS011;23223;51.006;7.610;2023-08-31T00:29:49;11.05;;;6.05;;
37339;SDS011;23223;51.006;7.610;2023-08-31T00:32:16;6.97;;;5.45;;
37339;SDS011;23223;51.006;7.610;2023-08-31T00:34:43;6.05;;;4.82;;
37339;SDS011;23223;51.006;7.610;2023-08-31T00:37:09;11.70;;;6.47;;
37339;SDS011;23223;51.006;7.610;2023-08-31T00:39:34;10.18;;;6.28;;
37339;SDS011;23223;51.006;7.610;2023-08-31T00:42:00;8.57;;;6.25;;
37339;SDS011;23223;51.006;7.610;2023-08-31T00:44:26;10.50;;;5.93;;
37339;SDS011;23223;51.006;7.610;2023-08-31T00:46:51;11.13;;;6.78;;
37339;SDS011;23223;51.006;7.610;2023-08-31T00:49:17;3.35;;;2.80;;
37339;SDS011;23223;51.006;7.610;2023-08-31T00:51:43;6.35;;;5.65;;
37339;SDS011;23223;51.006;7.610;2023-08-31T00:54:16;4.72;;;2.78;;
37339;SDS011;23223;51.006;7.610;2023-08-31T00:56:42;7.55;;;5.18;;
37339;SDS011;23223;51.006;7.610;2023-08-31T00:59:08;6.20;;;4.60;;
37339;SDS011;23223;51.006;7.610;2023-08-31T01:01:41;7.57;;;5.88;;
37339;SDS011;23223;51.006;7.610;2023-08-31T01:04:25;6.25;;;4.53;;
37339;SDS011;23223;51.006;7.610;2023-08-31T01:07:21;4.38;;;2.90;;
37339;SDS011;23223;51.006;7.610;2023-08-31T01:10:14;11.63;;;6.13;;
37339;SDS011;23223;51.006;7.610;2023-08-31T01:13:02;9.85;;;4.68;;
37339;SDS011;23223;51.006;7.610;2023-08-31T01:15:36;4.90;;;2.40;;
37339;SDS011;23223;51.006;7.610;2023-08-31T01:18:03;8.70;;;3.38;;
37339;SDS011;23223;51.006;7.610;2023-08-31T01:26:00;6.80;;;5.22;;
37339;SDS011;23223;51.006;7.610;2023-08-31T01:28:26;6.63;;;5.28;;
37339;SDS011;23223;51.006;7.610;2023-08-31T01:30:52;5.15;;;4.43;;
37339;SDS011;23223;51.006;7.610;2023-08-31T01:33:18;6.30;;;4.47;;
37339;SDS011;23223;51.006;7.610;2023-08-31T01:35:45;9.05;;;5.20;;
37339;SDS011;23223;51.006;7.610;2023-08-31T01:38:18;8.45;;;5.88;;
37339;SDS011;23223;51.006;7.610;2023-08-31T01:40:52;11.18;;;5.70;;
37339;SDS011;23223;51.006;7.610;2023-08-31T01:43:22;5.35;;;4.20;;
37339;SDS011;23223;51.006;7.610;2023-08-31T01:45:49;3.72;;;3.17;;
37339;SDS011;23223;51.006;7.610;2023-08-31T01:48:15;8.30;;;5.25;;
37339;SDS011;23223;51.006;7.610;2023-08-31T01:50:41;6.80;;;5.32;;
37339;SDS011;23223;51.006;7.610;2023-08-31T01:53:07;7.72;;;4.68;;
37339;SDS011;23223;51.006;7.610;2023-08-31T01:55:33;8.48;;;4.05;;
37339;SDS011;23223;51.006;7.610;2023-08-31T01:57:58;9.95;;;5.57;;
37339;SDS011;23223;51.006;7.610;2023-08-31T02:00:24;4.55;;;3.92;;
37339;SDS011;23223;51.006;7.610;2023-08-31T02:02:51;9.18;;;5.32;;
37339;SDS011;23223;51.006;7.610;2023-08-31T02:05:16;7.97;;;4.95;;
37339;SDS011;23223;51.006;7.610;2023-08-31T02:07:42;4.45;;;4.05;;
37339;SDS011;23223;51.006;7.610;2023-08-31T02:10:08;5.50;;;4.70;;
37339;SDS011;23223;51.006;7.610;2023-08-31T02:12:33;3.38;;;2.97;;
37339;SDS011;23223;51.006;7.610;2023-08-31T02:15:01;10.15;;;5.40;;
37339;SDS011;23223;51.006;7.610;2023-08-31T02:17:27;8.48;;;5.78;;
37339;SDS011;23223;51.006;7.610;2023-08-31T02:19:53;7.15;;;5.05;;
37339;SDS011;23223;51.006;7.610;2023-08-31T02:22:19;5.93;;;4.80;;
37339;SDS011;23223;51.006;7.610;2023-08-31T02:24:44;12.07;;;4.95;;
37339;SDS011;23223;51.006;7.610;2023-08-31T02:27:10;9.35;;;4.20;;
37339;SDS011;23223;51.006;7.610;2023-08-31T02:29:35;9.13;;;5.57;;
37339;SDS011;23223;51.006;7.610;2023-08-31T02:32:04;14.88;;;5.25;;
37339;SDS011;23223;51.006;7.610;2023-08-31T02:34:30;9.48;;;4.93;;
37339;SDS011;23223;51.006;7.610;2023-08-31T02:36:55;5.45;;;4.18;;
37339;SDS011;23223;51.006;7.610;2023-08-31T02:39:21;10.00;;;5.88;;
37339;SDS011;23223;51.006;7.610;2023-08-31T02:41:46;14.23;;;5.85;;
37339;SDS011;23223;51.006;7.610;2023-08-31T02:44:12;7.72;;;4.95;;
37339;SDS011;23223;51.006;7.610;2023-08-31T02:46:38;7.80;;;5.05;;
37339;SDS011;23223;51.006;7.610;2023-08-31T02:49:04;6.85;;;5.40;;
37339;SDS011;23223;51.006;7.610;2023-08-31T02:51:30;5.47;;;3.42;;
37339;SDS011;23223;51.006;7.610;2023-08-31T02:53:55;9.07;;;5.45;;
37339;SDS011;23223;51.006;7.610;2023-08-31T02:56:21;6.25;;;5.07;;
37339;SDS011;23223;51.006;7.610;2023-08-31T02:58:46;6.30;;;5.00;;
37339;SDS011;23223;51.006;7.610;2023-08-31T03:01:12;6.50;;;5.00;;
37339;SDS011;23223;51.006;7.610;2023-08-31T03:03:39;10.32;;;3.40;;
37339;SDS011;23223;51.006;7.610;2023-08-31T03:06:06;5.22;;;3.72;;
37339;SDS011;23223;51.006;7.610;2023-08-31T03:08:36;11.07;;;5.30;;
37339;SDS011;23223;51.006;7.610;2023-08-31T03:11:02;5.18;;;4.20;;
37339;SDS011;23223;51.006;7.610;2023-08-31T03:13:29;4.20;;;3.25;;
37339;SDS011;23223;51.006;7.610;2023-08-31T03:15:54;14.73;;;5.47;;
37339;SDS011;23223;51.006;7.610;2023-08-31T03:18:21;7.18;;;5.30;;
37339;SDS011;23223;51.006;7.610;2023-08-31T03:20:47;12.82;;;5.13;;
37339;SDS011;23223;51.006;7.610;2023-08-31T03:23:13;7.97;;;4.93;;
37339;SDS011;23223;51.006;7.610;2023-08-31T03:25:39;18.23;;;5.88;;
37339;SDS011;23223;51.006;7.610;2023-08-31T03:28:04;6.85;;;4.82;;
37339;SDS011;23223;51.006;7.610;2023-08-31T03:30:30;6.28;;;3.15;;
37339;SDS011;23223;51.006;7.610;2023-08-31T03:32:56;2.70;;;2.42;;
37339;SDS011;23223;51.006;7.610;2023-08-31T03:35:21;5.47;;;3.60;;
37339;SDS011;23223;51.006;7.610;2023-08-31T03:37:55;6.97;;;4.85;;
37339;SDS011;23223;51.006;7.610;2023-08-31T03:40:21;13.32;;;5.18;;
37339;SDS011;23223;51.006;7.610;2023-08-31T03:42:47;13.43;;;5.50;;
37339;SDS011;23223;51.006;7.610;2023-08-31T03:45:14;11.65;;;5.38;;
37339;SDS011;23223;51.006;7.610;2023-08-31T03:47:40;7.03;;;4.95;;
37339;SDS011;23223;51.006;7.610;2023-08-31T03:50:05;9.73;;;3.97;;
37339;SDS011;23223;51.006;7.610;2023-08-31T03:52:32;9.43;;;5.70;;
37339;SDS011;23223;51.006;7.610;2023-08-31T03:54:57;11.50;;;5.85;;
37339;SDS011;23223;51.006;7.610;2023-08-31T03:57:23;14.30;;;5.43;;
37339;SDS011;23223;51.006;7.610;2023-08-31T03:59:48;6.20;;;4.80;;
37339;SDS011;23223;51.006;7.610;2023-08-31T04:02:14;6.07;;;4.85;;
37339;SDS011;23223;51.006;7.610;2023-08-31T04:04:40;9.85;;;5.57;;
37339;SDS011;23223;51.006;7.610;2023-08-31T04:07:05;9.68;;;5.03;;
37339;SDS011;23223;51.006;7.610;2023-08-31T04:09:31;11.73;;;4.18;;
37339;SDS011;23223;51.006;7.610;2023-08-31T04:11:57;5.25;;;3.60;;
37339;SDS011;23223;51.006;7.610;2023-08-31T04:14:23;15.27;;;5.38;;
37339;SDS011;23223;51.006;7.610;2023-08-31T04:16:51;10.05;;;6.05;;
37339;SDS011;23223;51.006;7.610;2023-08-31T04:19:16;8.48;;;5.53;;
37339;SDS011;23223;51.006;7.610;2023-08-31T04:21:42;9.68;;;5.40;;
37339;SDS011;23223;51.006;7.610;2023-08-31T04:24:08;9.50;;;5.78;;
37339;SDS011;23223;51.006;7.610;2023-08-31T04:26:34;4.88;;;4.35;;
37339;SDS011;23223;51.006;7.610;2023-08-31T04:29:01;15.20;;;5.95;;
37339;SDS011;23223;51.006;7.610;2023-08-31T04:31:28;8.15;;;5.00;;
37339;SDS011;23223;51.006;7.610;2023-08-31T04:33:54;6.30;;;3.22;;
37339;SDS011;23223;51.006;7.610;2023-08-31T04:36:20;8.23;;;4.35;;
37339;SDS011;23223;51.006;7.610;2023-08-31T04:38:46;3.13;;;1.75;;
37339;SDS011;23223;51.006;7.610;2023-08-31T04:41:14;9.00;;;3.65;;
37339;SDS011;23223;51.006;7.610;2023-08-31T04:43:40;4.28;;;3.40;;
37339;SDS011;23223;51.006;7.610;2023-08-31T04:46:06;5.50;;;2.97;;
37339;SDS011;23223;51.006;7.610;2023-08-31T04:48:32;11.30;;;3.67;;
37339;SDS011;23223;51.006;7.610;2023-08-31T04:50:57;7.30;;;4.10;;
37339;SDS011;23223;51.006;7.610;2023-08-31T04:53:23;3.03;;;1.63;;
37339;SDS011;23223;51.006;7.610;2023-08-31T04:55:49;9.35;;;3.63;;
37339;SDS011;23223;51.006;7.610;2023-08-31T04:58:15;5.07;;;3.13;;
37339;SDS011;23223;51.006;7.610;2023-08-31T05:00:41;5.82;;;3.15;;
37339;SDS011;23223;51.006;7.610;2023-08-31T05:03:06;6.95;;;3.38;;
37339;SDS011;23223;51.006;7.610;2023-08-31T05:05:32;6.55;;;3.22;;
37339;SDS011;23223;51.006;7.610;2023-08-31T05:07:57;7.40;;;4.07;;
37339;SDS011;23223;51.006;7.610;2023-08-31T05:10:24;6.50;;;3.75;;
37339;SDS011;23223;51.006;7.610;2023-08-31T05:12:49;5.38;;;2.83;;
37339;SDS011;23223;51.006;7.610;2023-08-31T05:15:15;3.63;;;3.05;;
37339;SDS011;23223;51.006;7.610;2023-08-31T05:17:41;5.28;;;3.22;;
37339;SDS011;23223;51.006;7.610;2023-08-31T05:20:07;6.35;;;4.40;;
37339;SDS011;23223;51.006;7.610;2023-08-31T05:22:34;8.10;;;4.22;;
37339;SDS011;23223;51.006;7.610;2023-08-31T05:25:00;5.72;;;4.30;;
37339;SDS011;23223;51.006;7.610;2023-08-31T05:27:29;9.38;;;4.93;;
37339;SDS011;23223;51.006;7.610;2023-08-31T05:29:55;8.10;;;5.47;;
37339;SDS011;23223;51.006;7.610;2023-08-31T05:32:20;8.73;;;5.10;;
37339;SDS011;23223;51.006;7.610;2023-08-31T05:34:46;7.43;;;4.35;;
37339;SDS011;23223;51.006;7.610;2023-08-31T05:37:14;8.60;;;4.85;;
37339;SDS011;23223;51.006;7.610;2023-08-31T05:39:40;8.18;;;5.63;;
37339;SDS011;23223;51.006;7.610;2023-08-31T05:42:05;15.55;;;7.15;;
37339;SDS011;23223;51.006;7.610;2023-08-31T05:44:33;11.40;;;5.63;;
37339;SDS011;23223;51.006;7.610;2023-08-31T05:46:59;13.68;;;6.65;;
37339;SDS011;23223;51.006;7.610;2023-08-31T05:49:25;6.80;;;5.70;;
37339;SDS011;23223;51.006;7.610;2023-08-31T05:51:50;10.98;;;6.72;;
37339;SDS011;23223;51.006;7.610;2023-08-31T05:54:16;5.68;;;4.85;;
37339;SDS011;23223;51.006;7.610;2023-08-31T05:56:41;10.02;;;5.72;;
37339;SDS011;23223;51.006;7.610;2023-08-31T05:59:07;5.72;;;4.13;;
37339;SDS011;23223;51.006;7.610;2023-08-31T06:01:36;5.15;;;3.97;;
37339;SDS011;23223;51.006;7.610;2023-08-31T06:04:02;8.68;;;5.25;;
37339;SDS011;23223;51.006;7.610;2023-08-31T06:06:28;11.90;;;6.00;;
37339;SDS011;23223;51.006;7.610;2023-08-31T06:08:54;17.85;;;6.07;;
37339;SDS011;23223;51.006;7.610;2023-08-31T06:11:19;6.72;;;4.70;;
37339;SDS011;23223;51.006;7.610;2023-08-31T06:13:46;6.75;;;5.00;;
37339;SDS011;23223;51.006;7.610;2023-08-31T06:16:11;4.82;;;3.00;;
37339;SDS011;23223;51.006;7.610;2023-08-31T06:18:37;6.93;;;4.20;;
37339;SDS011;23223;51.006;7.610;2023-08-31T06:21:03;9.13;;;4.85;;
37339;SDS011;23223;51.006;7.610;2023-08-31T06:23:28;4.60;;;3.15;;
37339;SDS011;23223;51.006;7.610;2023-08-31T06:25:54;3.85;;;3.53;;
37339;SDS011;23223;51.006;7.610;2023-08-31T06:28:20;5.30;;;3.38;;
37339;SDS011;23223;51.006;7.610;2023-08-31T06:30:45;7.05;;;4.75;;
37339;SDS011;23223;51.006;7.610;2023-08-31T06:33:17;10.10;;;4.43;;
37339;SDS011;23223;51.006;7.610;2023-08-31T06:35:46;7.60;;;4.35;;
37339;SDS011;23223;51.006;7.610;2023-08-31T06:38:19;7.15;;;4.35;;
37339;SDS011;23223;51.006;7.610;2023-08-31T06:40:46;7.22;;;5.10;;
37339;SDS011;23223;51.006;7.610;2023-08-31T06:43:12;9.50;;;4.80;;
37339;SDS011;23223;51.006;7.610;2023-08-31T06:45:37;6.75;;;3.95;;
37339;SDS011;23223;51.006;7.610;2023-08-31T06:48:03;7.38;;;5.22;;
37339;SDS011;23223;51.006;7.610;2023-08-31T06:50:29;6.35;;;4.60;;
37339;SDS011;23223;51.006;7.610;2023-08-31T06:52:55;6.30;;;4.50;;
37339;SDS011;23223;51.006;7.610;2023-08-31T06:55:20;7.65;;;5.10;;
37339;SDS011;23223;51.006;7.610;2023-08-31T06:57:46;9.35;;;5.25;;
37339;SDS011;23223;51.006;7.610;2023-08-31T07:00:12;5.32;;;4.55;;
37339;SDS011;23223;51.006;7.610;2023-08-31T07:02:40;10.90;;;4.72;;
37339;SDS011;23223;51.006;7.610;2023-08-31T07:05:07;8.75;;;5.03;;
37339;SDS011;23223;51.006;7.610;2023-08-31T07:07:32;11.20;;;3.75;;
37339;SDS011;23223;51.006;7.610;2023-08-31T07:09:58;5.20;;;3.30;;
37339;SDS011;23223;51.006;7.610;2023-08-31T07:12:24;10.15;;;5.40;;
37339;SDS011;23223;51.006;7.610;2023-08-31T07:14:50;9.15;;;5.50;;
37339;SDS011;23223;51.006;7.610;2023-08-31T07:17:18;7.60;;;5.78;;
37339;SDS011;23223;51.006;7.610;2023-08-31T07:19:44;6.22;;;4.43;;
37339;SDS011;23223;51.006;7.610;2023-08-31T07:22:10;13.30;;;6.07;;
37339;SDS011;23223;51.006;7.610;2023-08-31T07:24:37;7.45;;;4.25;;
37339;SDS011;23223;51.006;7.610;2023-08-31T07:27:03;9.20;;;4.30;;
37339;SDS011;23223;51.006;7.610;2023-08-31T07:29:29;8.90;;;5.47;;
37339;SDS011;23223;51.006;7.610;2023-08-31T07:31:55;8.57;;;4.93;;
37339;SDS011;23223;51.006;7.610;2023-08-31T07:34:21;9.40;;;5.00;;
37339;SDS011;23223;51.006;7.610;2023-08-31T07:36:46;10.07;;;4.60;;
37339;SDS011;23223;51.006;7.610;2023-08-31T07:39:12;7.32;;;3.92;;
37339;SDS011;23223;51.006;7.610;2023-08-31T07:41:37;10.95;;;4.65;;
37339;SDS011;23223;51.006;7.610;2023-08-31T07:44:06;9.13;;;4.13;;
37339;SDS011;23223;51.006;7.610;2023-08-31T07:46:31;5.00;;;3.53;;
37339;SDS011;23223;51.006;7.610;2023-08-31T07:48:57;4.32;;;3.47;;
37339;SDS011;23223;51.006;7.610;2023-08-31T07:51:23;10.98;;;4.30;;
37339;SDS011;23223;51.006;7.610;2023-08-31T07:53:49;5.63;;;3.90;;
37339;SDS011;23223;51.006;7.610;2023-08-31T07:56:15;6.80;;;4.70;;
37339;SDS011;23223;51.006;7.610;2023-08-31T07:58:41;9.93;;;4.63;;
37339;SDS011;23223;51.006;7.610;2023-08-31T08:01:07;6.65;;;3.85;;
37339;SDS011;23223;51.006;7.610;2023-08-31T08:03:33;5.40;;;3.97;;
37339;SDS011;23223;51.006;7.610;2023-08-31T08:05:59;9.65;;;4.65;;
37339;SDS011;23223;51.006;7.610;2023-08-31T08:08:24;6.07;;;4.35;;
37339;SDS011;23223;51.006;7.610;2023-08-31T08:10:53;7.72;;;3.50;;
37339;SDS011;23223;51.006;7.610;2023-08-31T08:13:19;6.00;;;4.05;;
37339;SDS011;23223;51.006;7.610;2023-08-31T08:15:45;12.90;;;4.18;;
37339;SDS011;23223;51.006;7.610;2023-08-31T08:18:11;6.25;;;3.65;;
37339;SDS011;23223;51.006;7.610;2023-08-31T08:20:38;3.92;;;3.50;;
37339;SDS011;23223;51.006;7.610;2023-08-31T08:23:04;3.95;;;3.22;;
37339;SDS011;23223;51.006;7.610;2023-08-31T08:25:30;4.40;;;2.78;;
37339;SDS011;23223;51.006;7.610;2023-08-31T08:27:56;7.80;;;3.70;;
37339;SDS011;23223;51.006;7.610;2023-08-31T08:30:22;5.07;;;3.75;;
37339;SDS011;23223;51.006;7.610;2023-08-31T08:32:47;4.80;;;2.70;;
37339;SDS011;23223;51.006;7.610;2023-08-31T08:35:13;5.22;;;2.80;;
37339;SDS011;23223;51.006;7.610;2023-08-31T08:37:39;4.13;;;3.35;;
37339;SDS011;23223;51.006;7.610;2023-08-31T08:40:05;4.30;;;2.72;;
37339;SDS011;23223;51.006;7.610;2023-08-31T08:42:31;8.60;;;3.25;;
37339;SDS011;23223;51.006;7.610;2023-08-31T08:45:04;6.45;;;2.97;;
37339;SDS011;23223;51.006;7.610;2023-08-31T08:47:31;6.57;;;3.42;;
37339;SDS011;23223;51.006;7.610;2023-08-31T08:49:57;3.97;;;2.70;;
37339;SDS011;23223;51.006;7.610;2023-08-31T08:52:23;8.68;;;3.13;;
37339;SDS011;23223;51.006;7.610;2023-08-31T08:54:49;5.70;;;3.40;;
37339;SDS011;23223;51.006;7.610;2023-08-31T08:57:15;2.95;;;2.65;;
37339;SDS011;23223;51.006;7.610;2023-08-31T08:59:47;4.00;;;2.90;;
37339;SDS011;23223;51.006;7.610;2023-08-31T09:02:12;6.07;;;3.20;;
37339;SDS011;23223;51.006;7.610;2023-08-31T09:04:39;7.78;;;3.00;;
37339;SDS011;23223;51.006;7.610;2023-08-31T09:07:05;6.25;;;3.55;;
37339;SDS011;23223;51.006;7.610;2023-08-31T09:09:31;5.90;;;2.80;;
37339;SDS011;23223;51.006;7.610;2023-08-31T09:11:57;7.18;;;3.13;;
37339;SDS011;23223;51.006;7.610;2023-08-31T09:14:31;4.60;;;2.75;;
37339;SDS011;23223;51.006;7.610;2023-08-31T09:16:57;7.10;;;2.13;;
37339;SDS011;23223;51.006;7.610;2023-08-31T09:19:23;5.75;;;2.60;;
37339;SDS011;23223;51.006;7.610;2023-08-31T09:21:51;3.70;;;2.20;;
37339;SDS011;23223;51.006;7.610;2023-08-31T09:24:18;6.40;;;2.20;;
37339;SDS011;23223;51.006;7.610;2023-08-31T09:26:44;6.60;;;2.40;;
37339;SDS011;23223;51.006;7.610;2023-08-31T09:29:12;6.50;;;2.30;;
37339;SDS011;23223;51.006;7.610;2023-08-31T09:31:38;4.30;;;2.30;;
37339;SDS011;23223;51.006;7.610;2023-08-31T09:34:08;5.68;;;1.77;;
37339;SDS011;23223;51.006;7.610;2023-08-31T09:36:33;7.07;;;2.22;;
37339;SDS011;23223;51.006;7.610;2023-08-31T09:38:59;4.72;;;2.13;;
37339;SDS011;23223;51.006;7.610;2023-08-31T09:41:25;4.50;;;2.13;;
37339;SDS011;23223;51.006;7.610;2023-08-31T09:43:50;7.45;;;1.83;;
37339;SDS011;23223;51.006;7.610;2023-08-31T09:46:19;3.15;;;1.55;;
37339;SDS011;23223;51.006;7.610;2023-08-31T09:48:46;2.55;;;2.05;;
37339;SDS011;23223;51.006;7.610;2023-08-31T09:51:14;3.92;;;1.75;;
37339;SDS011;23223;51.006;7.610;2023-08-31T09:53:42;3.60;;;1.95;;
37339;SDS011;23223;51.006;7.610;2023-08-31T09:56:18;4.65;;;1.98;;
37339;SDS011;23223;51.006;7.610;2023-08-31T09:58:49;5.10;;;1.33;;
37339;SDS011;23223;51.006;7.610;2023-08-31T10:01:16;4.22;;;2.00;;
37339;SDS011;23223;51.006;7.610;2023-08-31T10:03:42;3.53;;;1.58;;
37339;SDS011;23223;51.006;7.610;2023-08-31T10:06:08;7.07;;;1.77;;
37339;SDS011;23223;51.006;7.610;2023-08-31T10:08:34;6.75;;;2.05;;
37339;SDS011;23223;51.006;7.610;2023-08-31T10:11:00;6.15;;;1.90;;
37339;SDS011;23223;51.006;7.610;2023-08-31T10:13:29;3.85;;;1.50;;
37339;SDS011;23223;51.006;7.610;2023-08-31T10:16:00;3.58;;;1.40;;
37339;SDS011;23223;51.006;7.610;2023-08-31T10:18:28;1.48;;;0.95;;
37339;SDS011;23223;51.006;7.610;2023-08-31T10:20:55;7.65;;;1.42;;
37339;SDS011;23223;51.006;7.610;2023-08-31T10:23:21;5.55;;;1.38;;
37339;SDS011;23223;51.006;7.610;2023-08-31T10:28:18;5.03;;;1.40;;
37339;SDS011;23223;51.006;7.610;2023-08-31T10:36:18;3.38;;;1.73;;
37339;SDS011;23223;51.006;7.610;2023-08-31T10:38:45;3.67;;;1.33;;
37339;SDS011;23223;51.006;7.610;2023-08-31T10:41:20;2.42;;;1.00;;
37339;SDS011;23223;51.006;7.610;2023-08-31T10:43:50;7.63;;;1.75;;
37339;SDS011;23223;51.006;7.610;2023-08-31T10:46:25;4.40;;;1.80;;
37339;SDS011;23223;51.006;7.610;2023-08-31T10:48:58;6.05;;;1.40;;
37339;SDS011;23223;51.006;7.610;2023-08-31T10:51:25;3.72;;;1.42;;
37339;SDS011;23223;51.006;7.610;2023-08-31T10:54:03;3.33;;;1.42;;
37339;SDS011;23223;51.006;7.610;2023-08-31T10:59:26;4.47;;;1.50;;
37339;SDS011;23223;51.006;7.610;2023-08-31T11:02:06;4.55;;;1.67;;
37339;SDS011;23223;51.006;7.610;2023-08-31T11:04:38;5.00;;;1.77;;
37339;SDS011;23223;51.006;7.610;2023-08-31T11:07:19;2.60;;;1.40;;
37339;SDS011;23223;51.006;7.610;2023-08-31T11:09:48;3.10;;;1.25;;
37339;SDS011;23223;51.006;7.610;2023-08-31T11:12:14;4.35;;;1.25;;
37339;SDS011;23223;51.006;7.610;2023-08-31T11:14:40;1.73;;;1.13;;
37339;SDS011;23223;51.006;7.610;2023-08-31T11:17:06;2.20;;;1.40;;
37339;SDS011;23223;51.006;7.610;2023-08-31T11:19:32;4.47;;;1.23;;
37339;SDS011;23223;51.006;7.610;2023-08-31T11:22:02;4.85;;;1.38;;
37339;SDS011;23223;51.006;7.610;2023-08-31T11:24:31;3.63;;;0.80;;
37339;SDS011;23223;51.006;7.610;2023-08-31T11:26:57;3.50;;;1.15;;
37339;SDS011;23223;51.006;7.610;2023-08-31T11:29:23;4.55;;;1.50;;
37339;SDS011;23223;51.006;7.610;2023-08-31T11:31:49;7.40;;;1.60;;
37339;SDS011;23223;51.006;7.610;2023-08-31T11:34:16;4.70;;;1.08;;
37339;SDS011;23223;51.006;7.610;2023-08-31T11:36:43;6.15;;;1.60;;
37339;SDS011;23223;51.006;7.610;2023-08-31T11:39:11;5.95;;;1.77;;
37339;SDS011;23223;51.006;7.610;2023-08-31T11:41:37;5.10;;;1.48;;
37339;SDS011;23223;51.006;7.610;2023-08-31T11:44:10;3.45;;;1.40;;
37339;SDS011;23223;51.006;7.610;2023-08-31T11:46:38;4.35;;;1.65;;
37339;SDS011;23223;51.006;7.610;2023-08-31T11:49:07;7.18;;;1.60;;
37339;SDS011;23223;51.006;7.610;2023-08-31T11:51:33;2.72;;;1.40;;
37339;SDS011;23223;51.006;7.610;2023-08-31T11:54:00;1.15;;;0.95;;
37339;SDS011;23223;51.006;7.610;2023-08-31T11:56:42;2.67;;;0.93;;
37339;SDS011;23223;51.006;7.610;2023-08-31T11:59:10;3.95;;;0.70;;
37339;SDS011;23223;51.006;7.610;2023-08-31T12:01:39;2.63;;;1.20;;
37339;SDS011;23223;51.006;7.610;2023-08-31T12:04:15;3.33;;;1.20;;
37339;SDS011;23223;51.006;7.610;2023-08-31T12:06:58;2.67;;;1.55;;
37339;SDS011;23223;51.006;7.610;2023-08-31T12:09:31;3.83;;;1.67;;
37339;SDS011;23223;51.006;7.610;2023-08-31T12:11:57;2.70;;;1.00;;
37339;SDS011;23223;51.006;7.610;2023-08-31T12:14:25;3.17;;;1.13;;
37339;SDS011;23223;51.006;7.610;2023-08-31T12:16:52;2.85;;;1.27;;
37339;SDS011;23223;51.006;7.610;2023-08-31T12:19:26;2.80;;;1.15;;
37339;SDS011;23223;51.006;7.610;2023-08-31T12:21:54;2.47;;;1.20;;
37339;SDS011;23223;51.006;7.610;2023-08-31T12:24:20;3.28;;;1.23;;
37339;SDS011;23223;51.006;7.610;2023-08-31T12:26:47;4.20;;;1.13;;
37339;SDS011;23223;51.006;7.610;2023-08-31T12:29:13;4.32;;;1.60;;
37339;SDS011;23223;51.006;7.610;2023-08-31T12:31:38;5.22;;;1.40;;
37339;SDS011;23223;51.006;7.610;2023-08-31T12:34:04;5.70;;;1.30;;
37339;SDS011;23223;51.006;7.610;2023-08-31T12:36:32;2.90;;;1.40;;
37339;SDS011;23223;51.006;7.610;2023-08-31T12:38:58;5.95;;;1.40;;
37339;SDS011;23223;51.006;7.610;2023-08-31T12:41:26;3.78;;;1.33;;
37339;SDS011;23223;51.006;7.610;2023-08-31T12:43:53;4.65;;;1.25;;
37339;SDS011;23223;51.006;7.610;2023-08-31T12:46:19;1.95;;;1.02;;
37339;SDS011;23223;51.006;7.610;2023-08-31T12:48:44;6.05;;;1.85;;
37339;SDS011;23223;51.006;7.610;2023-08-31T12:51:10;4.93;;;1.60;;
37339;SDS011;23223;51.006;7.610;2023-08-31T12:53:38;5.70;;;1.70;;
37339;SDS011;23223;51.006;7.610;2023-08-31T12:56:04;6.90;;;1.95;;
37339;SDS011;23223;51.006;7.610;2023-08-31T12:58:31;4.30;;;1.88;;
37339;SDS011;23223;51.006;7.610;2023-08-31T13:01:00;2.75;;;1.60;;
37339;SDS011;23223;51.006;7.610;2023-08-31T13:03:26;4.15;;;1.00;;
37339;SDS011;23223;51.006;7.610;2023-08-31T13:05:55;2.03;;;0.93;;
37339;SDS011;23223;51.006;7.610;2023-08-31T13:08:21;3.13;;;1.13;;
37339;SDS011;23223;51.006;7.610;2023-08-31T13:10:53;2.90;;;1.27;;
37339;SDS011;23223;51.006;7.610;2023-08-31T13:13:19;2.17;;;1.10;;
37339;SDS011;23223;51.006;7.610;2023-08-31T13:15:48;5.45;;;1.30;;
37339;SDS011;23223;51.006;7.610;2023-08-31T13:18:15;1.00;;;0.80;;
37339;SDS011;23223;51.006;7.610;2023-08-31T13:20:48;1.25;;;0.88;;
37339;SDS011;23223;51.006;7.610;2023-08-31T13:23:18;2.08;;;0.75;;
37339;SDS011;23223;51.006;7.610;2023-08-31T13:25:44;2.47;;;1.42;;
37339;SDS011;23223;51.006;7.610;2023-08-31T13:28:10;3.20;;;1.30;;
37339;SDS011;23223;51.006;7.610;2023-08-31T13:30:36;2.03;;;1.00;;
37339;SDS011;23223;51.006;7.610;2023-08-31T13:33:02;1.67;;;1.10;;
37339;SDS011;23223;51.006;7.610;2023-08-31T13:35:29;1.92;;;1.30;;
37339;SDS011;23223;51.006;7.610;2023-08-31T13:37:55;2.53;;;1.42;;
37339;SDS011;23223;51.006;7.610;2023-08-31T13:40:21;1.58;;;0.90;;
37339;SDS011;23223;51.006;7.610;2023-08-31T13:42:53;6.72;;;1.65;;
37339;SDS011;23223;51.006;7.610;2023-08-31T13:45:22;3.40;;;1.25;;
37339;SDS011;23223;51.006;7.610;2023-08-31T13:47:47;2.15;;;1.35;;
37339;SDS011;23223;51.006;7.610;2023-08-31T13:50:14;6.22;;;2.00;;
37339;SDS011;23223;51.006;7.610;2023-08-31T13:52:40;3.15;;;1.27;;
37339;SDS011;23223;51.006;7.610;2023-08-31T13:55:06;2.45;;;1.10;;
37339;SDS011;23223;51.006;7.610;2023-08-31T13:57:32;2.50;;;1.55;;
37339;SDS011;23223;51.006;7.610;2023-08-31T13:59:58;5.32;;;1.40;;
37339;SDS011;23223;51.006;7.610;2023-08-31T14:02:24;2.58;;;1.20;;
37339;SDS011;23223;51.006;7.610;2023-08-31T14:04:50;6.65;;;1.70;;
37339;SDS011;23223;51.006;7.610;2023-08-31T14:07:17;4.07;;;1.30;;
37339;SDS011;23223;51.006;7.610;2023-08-31T14:09:43;4.43;;;1.40;;
37339;SDS011;23223;51.006;7.610;2023-08-31T14:12:08;3.35;;;1.90;;
37339;SDS011;23223;51.006;7.610;2023-08-31T14:14:34;8.27;;;2.22;;
37339;SDS011;23223;51.006;7.610;2023-08-31T14:17:00;4.25;;;1.73;;
37339;SDS011;23223;51.006;7.610;2023-08-31T14:19:26;5.75;;;1.38;;
37339;SDS011;23223;51.006;7.610;2023-08-31T14:21:52;1.65;;;1.13;;
37339;SDS011;23223;51.006;7.610;2023-08-31T14:24:18;2.60;;;1.27;;
37339;SDS011;23223;51.006;7.610;2023-08-31T14:26:44;4.55;;;1.52;;
37339;SDS011;23223;51.006;7.610;2023-08-31T14:29:10;5.68;;;1.88;;
37339;SDS011;23223;51.006;7.610;2023-08-31T14:31:36;2.97;;;1.60;;
37339;SDS011;23223;51.006;7.610;2023-08-31T14:34:02;2.28;;;1.10;;
37339;SDS011;23223;51.006;7.610;2023-08-31T14:36:28;1.17;;;1.02;;
37339;SDS011;23223;51.006;7.610;2023-08-31T14:38:53;3.67;;;1.75;;
37339;SDS011;23223;51.006;7.610;2023-08-31T14:41:19;7.22;;;2.22;;
37339;SDS011;23223;51.006;7.610;2023-08-31T14:43:45;2.67;;;1.40;;
37339;SDS011;23223;51.006;7.610;2023-08-31T14:46:11;6.72;;;1.88;;
37339;SDS011;23223;51.006;7.610;2023-08-31T14:48:36;2.25;;;1.30;;
37339;SDS011;23223;51.006;7.610;2023-08-31T14:51:02;7.68;;;1.63;;
37339;SDS011;23223;51.006;7.610;2023-08-31T14:53:28;3.63;;;1.75;;
37339;SDS011;23223;51.006;7.610;2023-08-31T14:55:54;3.20;;;1.30;;
37339;SDS011;23223;51.006;7.610;2023-08-31T14:58:19;3.63;;;1.17;;
37339;SDS011;23223;51.006;7.610;2023-08-31T15:00:45;3.58;;;1.52;;